Řízení letového provozu České republiky  
Aktualizace dat:  20.07.2018 16:00:10 UTC English version
   METEO Zobrazení stránky:  20.07.2018 16:01:09 UTC  
vysvětlivky
METAR EDDB 201550Z 34006KT 240V050 CAVOK 26/08 Q1013 NOSIG=
METAR EDDC 201550Z 33006KT 280V010 CAVOK 27/06 Q1013 NOSIG=
METAR EDDE 201550Z 36004KT 280V090 CAVOK 28/07 Q1012 NOSIG=
METAR EDDF 201550Z VRB02KT CAVOK 31/05 Q1010 NOSIG=
METAR EDDM 201550Z VRB02KT CAVOK 28/10 Q1012 NOSIG=
METAR EDDN 201550Z 06007KT 020V100 CAVOK 30/09 Q1011 NOSIG=
METAR EDDP 201550Z 02006KT 330V050 CAVOK 28/07 Q1012 NOSIG=
METAR EDDT 201550Z 32007KT 270V040 CAVOK 26/09 Q1013 NOSIG=
METAR EDQM 201550Z VRB02KT CAVOK 26/M00 Q1014=
METAR EPBY 201530Z 33010KT 290V350 CAVOK 26/14 Q1011 =
METAR EPGD 201530Z 31016KT CAVOK 23/15 Q1011 =
METAR EPKK 201530Z 27006KT 9999 FEW040 24/16 Q1012 =
METAR EPKT 201530Z 30009KT 270V340 9999 FEW052TCU 26/13 Q1012 =
METAR EPLL 201530Z 27013KT 250V320 CAVOK 26/13 Q1011 =
METAR EPPO 201530Z 29011KT CAVOK 26/10 Q1012 =
METAR EPRZ 201530Z 23006KT 9999 FEW050CB 24/18 Q1010 =
METAR EPWA 201530Z 29011KT 250V310 9999 FEW053TCU 28/16 Q1009 NOSIG=
METAR EPWR 201530Z 32011KT 290V350 CAVOK 26/11 Q1013 =
METAR LHBP 201530Z 02016KT 350V050 9999 4000E -SHRA VCTS FEW035CB BKN050 22/20 Q1011 BECMG NSW=
METAR LHSM 201515Z 34005KT CAVOK 29/16 Q1012 NOSIG=
METAR LKCV 201500Z 31007KT 260V360 CAVOK 28/09 Q1013 NOSIG RMK BLU BLU=
METAR LKKB 201500Z 28008KT 260V320 CAVOK 28/07 Q1013 NOSIG RMK BLU BLU=
METAR LKKU NIL
METAR LKKV 201530Z 13006KT 080V180 CAVOK 25/08 Q1014 RMK REG QNH 1010=
METAR LKLN 201500Z AUTO 12005KT 060V160 9999 BKN220 27/08 Q1013=
METAR LKMT 201600Z 02005KT 330V070 CAVOK 26/13 Q1013 NOSIG RMK REG QNH 1010=
METAR LKNA 201500Z 28007KT 240V320 CAVOK 28/09 Q1013 NOSIG RMK BLU BLU=
METAR LKPD 201500Z VRB05KT CAVOK 28/07 Q1013 NOSIG RMK BLU BLU=
METAR LKPR 201530Z VRB04KT CAVOK 28/08 Q1013 NOSIG RMK REG QNH 1010=
METAR LKTB 201530Z VRB05KT CAVOK 29/12 Q1012 NOSIG RMK REG QNH 1010=
METAR LKVO NIL
METAR LOWI 201550Z VRB07G19KT 9999 -SHRA FEW060 FEW060CB SCT070 BKN100 23/14 Q1014 RERA TEMPO 27012G22KT TSRA=
METAR LOWL 201550Z VRB04KT 9999 FEW070 30/07 Q1012 NOSIG=
METAR LOWS 201550Z 03006KT 340V080 9999 FEW070 29/10 Q1013 NOSIG=
METAR LOWW 201550Z 04006KT 020V090 CAVOK 28/14 Q1012 NOSIG=
METAR LZIB 201530Z 32006KT 290V020 CAVOK 28/15 Q1012 NOSIG=
METAR LZKZ 201530Z 33004KT 9999 FEW035 26/16 Q1011 NOSIG=
METAR LZPP 201530Z 34008KT 9999 FEW048 28/14 Q1012=
METAR LZSL 201530Z 18007KT 120V250 9999 FEW046 26/16 Q1012=
METAR LZTT 201530Z VRB02KT 9999 FEW030 22/14 Q1014 NOSIG=
METAR LZZI 201530Z 05004KT 020V100 9999 FEW050 25/14 Q1013=